Time;durP1;ratioP1;P1;durP2;ratioP2;P2;SDS_P1;SDS_P2;PMS_P1;PMS_P2;Temp;Humidity;BMP_temperature;BMP_pressure;BME280_temperature;BME280_humidity;BME280_pressure;Samples;Min_cycle;Max_cycle;Signal;HPM_P1;HPM_P2
2022/04/05 00:02:24;;;;;;;13.93;7.90;;;6.00;99.90;;;;;;5009542;28;20393;-54
2022/04/05 00:04:50;;;;;;;14.52;8.20;;;6.10;99.90;;;;;;5008066;28;20425;-53
2022/04/05 00:07:16;;;;;;;15.43;8.60;;;6.10;99.90;;;;;;4991931;28;20393;-54
2022/04/05 00:09:42;;;;;;;15.18;8.50;;;6.00;99.90;;;;;;5009071;28;20873;-54
2022/04/05 00:12:08;;;;;;;13.95;7.97;;;6.10;99.90;;;;;;5012064;28;20458;-53
2022/04/05 00:14:34;;;;;;;12.45;7.60;;;6.10;99.90;;;;;;5011999;28;20874;-52
2022/04/05 00:17:02;;;;;;;15.93;8.15;;;6.10;99.90;;;;;;5012474;28;20463;-54
2022/04/05 00:19:29;;;;;;;14.82;8.40;;;6.10;99.90;;;;;;4995097;28;20393;-54
2022/04/05 00:21:55;;;;;;;13.38;7.90;;;6.10;99.90;;;;;;5011719;28;20885;-55
2022/04/05 00:24:21;;;;;;;13.15;8.02;;;6.10;99.90;;;;;;5012547;28;20479;-53
2022/04/05 00:26:47;;;;;;;13.60;8.00;;;6.00;99.90;;;;;;5011424;28;20449;-54
2022/04/05 00:29:13;;;;;;;14.90;7.70;;;6.00;99.90;;;;;;5012468;28;20479;-54
2022/04/05 00:31:38;;;;;;;12.73;7.90;;;6.00;99.90;;;;;;4994201;28;20388;-54
2022/04/05 00:34:05;;;;;;;12.90;7.10;;;6.10;99.90;;;;;;5012564;28;20523;-54
2022/04/05 00:36:31;;;;;;;15.23;8.10;;;6.20;99.90;;;;;;5012683;28;20450;-52
2022/04/05 00:38:56;;;;;;;13.03;7.37;;;6.10;99.90;;;;;;5015576;28;20397;-54
2022/04/05 00:41:31;;;;;;;12.68;7.60;;;6.10;99.90;;;;;;5014123;28;20385;-55
2022/04/05 00:44:28;;;;;;;13.30;7.40;;;6.10;99.90;;;;;;5040302;28;20414;-52
2022/04/05 00:47:33;;;;;;;14.57;7.82;;;6.10;99.90;;;;;;5028087;28;20402;-53
2022/04/05 00:49:59;;;;;;;12.57;7.65;;;6.20;99.90;;;;;;5032642;28;20493;-54
2022/04/05 00:52:25;;;;;;;13.13;7.57;;;6.20;99.90;;;;;;5037081;28;20865;-54
2022/04/05 00:54:52;;;;;;;15.27;8.07;;;6.30;99.90;;;;;;5014427;28;20389;-54
2022/04/05 00:57:20;;;;;;;15.05;7.82;;;6.30;99.90;;;;;;5015625;28;20445;-54
2022/04/05 00:59:53;;;;;;;13.50;7.68;;;6.40;99.90;;;;;;5029866;28;20457;-53
2022/04/05 01:02:20;;;;;;;13.10;7.47;;;6.40;99.90;;;;;;5031103;28;21135;-54
2022/04/05 01:04:47;;;;;;;12.60;6.90;;;6.40;99.90;;;;;;5015087;28;20416;-54
2022/04/05 01:07:18;;;;;;;12.60;7.50;;;6.30;99.90;;;;;;5012136;28;20469;-54
2022/04/05 01:09:44;;;;;;;12.63;7.50;;;6.30;99.90;;;;;;5016262;28;20421;-53
2022/04/05 01:12:12;;;;;;;12.93;7.73;;;6.30;99.90;;;;;;5012018;28;20416;-53
2022/04/05 01:14:39;;;;;;;13.95;7.22;;;6.20;99.90;;;;;;5011150;28;20401;-53
2022/04/05 01:17:06;;;;;;;14.98;8.02;;;6.20;99.90;;;;;;5011895;28;20377;-53
2022/04/05 01:19:32;;;;;;;16.10;7.70;;;6.20;99.90;;;;;;5025921;28;20941;-52
2022/04/05 01:21:59;;;;;;;14.30;7.47;;;6.30;99.90;;;;;;5030177;28;20461;-54
2022/04/05 01:24:25;;;;;;;14.67;7.70;;;6.50;99.90;;;;;;5027745;28;20942;-54
2022/04/05 01:26:54;;;;;;;13.53;6.83;;;6.40;99.90;;;;;;5022692;28;20393;-53
2022/04/05 01:29:22;;;;;;;12.32;7.80;;;6.40;99.90;;;;;;5011262;28;20454;-53
2022/04/05 01:31:55;;;;;;;12.95;7.28;;;6.40;99.90;;;;;;5010685;28;20401;-53
2022/04/05 01:34:24;;;;;;;14.57;7.03;;;6.40;99.90;;;;;;5011833;28;20393;-54
2022/04/05 01:36:53;;;;;;;13.30;7.10;;;6.30;99.90;;;;;;4993175;28;20388;-54
2022/04/05 01:39:22;;;;;;;12.88;7.10;;;6.20;99.90;;;;;;5011229;28;20401;-53
2022/04/05 01:41:59;;;;;;;11.80;7.00;;;6.20;99.90;;;;;;5010222;28;20400;-54
2022/04/05 01:44:26;;;;;;;12.20;7.10;;;6.20;99.90;;;;;;4993688;28;20427;-54
2022/04/05 01:46:52;;;;;;;12.00;7.35;;;6.20;99.90;;;;;;5010423;28;20401;-53
2022/04/05 01:49:18;;;;;;;13.60;7.10;;;6.20;99.90;;;;;;5010860;28;20385;-54
2022/04/05 01:51:45;;;;;;;14.80;7.25;;;6.20;99.90;;;;;;4992985;28;20746;-54
2022/04/05 01:54:14;;;;;;;12.88;7.28;;;6.20;99.90;;;;;;5011310;28;20462;-53
2022/04/05 01:56:45;;;;;;;12.85;7.53;;;6.30;99.90;;;;;;5010741;28;20439;-53
2022/04/05 01:59:13;;;;;;;12.05;7.22;;;6.30;99.90;;;;;;5012679;28;20405;-53
2022/04/05 02:01:39;;;;;;;12.00;7.30;;;6.40;99.90;;;;;;5010282;28;20435;-54
2022/04/05 02:04:05;;;;;;;14.30;8.30;;;6.40;99.90;;;;;;5010664;28;20381;-54
2022/04/05 02:06:31;;;;;;;13.20;7.63;;;6.30;99.90;;;;;;4994305;28;20486;-53
2022/04/05 02:08:56;;;;;;;14.40;7.90;;;6.20;99.90;;;;;;5010519;28;20439;-55
2022/04/05 02:11:23;;;;;;;14.20;7.28;;;6.20;99.90;;;;;;5012080;28;20384;-54
2022/04/05 02:13:49;;;;;;;13.45;7.90;;;6.30;99.90;;;;;;5029854;28;20391;-53
2022/04/05 02:16:15;;;;;;;13.60;7.50;;;6.30;99.90;;;;;;5028964;28;20803;-53
2022/04/05 02:18:41;;;;;;;13.90;7.60;;;6.20;99.90;;;;;;5010251;28;20385;-53
2022/04/05 02:21:07;;;;;;;15.90;7.72;;;6.20;99.90;;;;;;5010220;28;20400;-53
2022/04/05 02:23:32;;;;;;;12.52;7.60;;;6.30;99.90;;;;;;5029238;28;20414;-53
2022/04/05 02:25:58;;;;;;;12.75;8.40;;;6.30;99.90;;;;;;5029635;28;20429;-53
2022/04/05 02:28:25;;;;;;;13.20;7.63;;;6.30;99.90;;;;;;5012061;28;20463;-53
2022/04/05 02:30:51;;;;;;;18.83;8.73;;;6.20;99.90;;;;;;5024843;28;20399;-53
2022/04/05 02:33:17;;;;;;;13.52;8.23;;;6.30;99.90;;;;;;5029961;28;20394;-53
2022/04/05 02:35:43;;;;;;;13.93;7.90;;;6.30;99.90;;;;;;5014871;28;20747;-53
2022/04/05 02:38:09;;;;;;;13.27;7.67;;;6.30;99.90;;;;;;5010462;28;20381;-53
2022/04/05 02:40:35;;;;;;;12.48;7.47;;;6.10;99.90;;;;;;5022866;28;20930;-51
2022/04/05 02:43:02;;;;;;;15.13;8.73;;;6.10;99.90;;;;;;5029992;28;20960;-54
2022/04/05 02:45:27;;;;;;;13.27;7.60;;;6.10;99.90;;;;;;4999940;28;20963;-53
2022/04/05 02:47:53;;;;;;;13.65;7.72;;;6.20;99.90;;;;;;5009202;28;20400;-53
2022/04/05 02:50:19;;;;;;;12.93;8.00;;;6.00;99.90;;;;;;5021107;28;20406;-52
2022/04/05 02:52:48;;;;;;;14.48;8.10;;;6.00;99.90;;;;;;5020575;28;20520;-53
2022/04/05 02:55:15;;;;;;;16.00;8.00;;;6.10;99.90;;;;;;5010159;28;20872;-53
2022/04/05 02:57:42;;;;;;;14.88;7.80;;;6.00;99.90;;;;;;5017404;28;20408;-53
2022/04/05 03:00:11;;;;;;;18.60;8.00;;;6.10;99.90;;;;;;5029787;28;20388;-53
2022/04/05 03:02:37;;;;;;;14.80;8.70;;;6.10;99.90;;;;;;5025015;28;20894;-52
2022/04/05 03:05:05;;;;;;;13.30;8.25;;;6.20;99.90;;;;;;5029457;28;20498;-53
2022/04/05 03:07:31;;;;;;;14.07;8.00;;;6.20;99.90;;;;;;5027991;28;20430;-53
2022/04/05 03:09:56;;;;;;;13.30;8.20;;;6.10;99.90;;;;;;5029099;28;20375;-53
2022/04/05 03:12:22;;;;;;;12.43;7.70;;;6.00;99.90;;;;;;5020125;28;20395;-53
2022/04/05 03:14:47;;;;;;;14.93;8.18;;;6.10;99.90;;;;;;5009417;28;20865;-54
2022/04/05 03:17:13;;;;;;;13.60;7.73;;;6.10;99.90;;;;;;5017621;28;20391;-53
2022/04/05 03:19:39;;;;;;;14.68;8.40;;;6.10;99.90;;;;;;5028589;28;20390;-53
2022/04/05 03:22:05;;;;;;;15.97;8.57;;;6.10;99.90;;;;;;5022346;28;20774;-53
2022/04/05 03:24:31;;;;;;;14.00;8.15;;;6.10;99.90;;;;;;5009664;28;20874;-53
2022/04/05 03:26:58;;;;;;;14.25;7.70;;;6.10;99.90;;;;;;5015039;28;20513;-53
2022/04/05 03:29:24;;;;;;;13.90;7.50;;;6.10;99.90;;;;;;5008958;28;20394;-54
2022/04/05 03:31:49;;;;;;;14.45;7.80;;;6.10;99.90;;;;;;5009000;28;20385;-54
2022/04/05 03:34:15;;;;;;;14.77;8.60;;;6.20;99.90;;;;;;5010659;28;20880;-53
2022/04/05 03:36:43;;;;;;;15.17;8.13;;;6.10;99.90;;;;;;5028637;28;20383;-53
2022/04/05 03:39:10;;;;;;;13.95;7.40;;;6.20;99.90;;;;;;5028236;28;20740;-53
2022/04/05 03:41:37;;;;;;;15.80;8.60;;;6.20;99.90;;;;;;5008939;28;20459;-52
2022/04/05 03:44:03;;;;;;;13.35;7.22;;;6.20;99.90;;;;;;5010648;28;20400;-53
2022/04/05 03:46:29;;;;;;;14.85;8.30;;;6.20;99.90;;;;;;5013860;28;20412;-53
2022/04/05 03:48:54;;;;;;;14.30;7.40;;;6.20;99.90;;;;;;5012905;28;20381;-53
2022/04/05 03:51:20;;;;;;;14.18;7.60;;;6.30;99.90;;;;;;5023053;28;20445;-53
2022/04/05 03:53:46;;;;;;;13.93;7.75;;;6.20;99.90;;;;;;5032317;28;20387;-53
2022/04/05 03:56:12;;;;;;;16.60;8.15;;;6.20;99.90;;;;;;5024244;28;20393;-53
2022/04/05 03:58:38;;;;;;;17.10;8.63;;;6.20;99.90;;;;;;5012771;28;20381;-51
2022/04/05 04:01:09;;;;;;;12.68;7.78;;;6.10;99.90;;;;;;5013716;28;20874;-53
2022/04/05 04:03:35;;;;;;;15.88;7.85;;;6.10;99.90;;;;;;5012796;28;20731;-52
2022/04/05 04:06:01;;;;;;;15.03;8.07;;;6.10;99.90;;;;;;5013875;28;20505;-53
2022/04/05 04:08:27;;;;;;;12.38;7.43;;;6.20;99.90;;;;;;5013940;28;20417;-52
2022/04/05 04:10:53;;;;;;;13.75;7.55;;;6.30;99.90;;;;;;5014405;28;20757;-54
2022/04/05 04:13:19;;;;;;;14.20;7.70;;;6.20;99.90;;;;;;5032686;28;20390;-53
2022/04/05 04:15:45;;;;;;;14.90;8.02;;;6.10;99.90;;;;;;4996499;28;20401;-54
2022/04/05 04:18:11;;;;;;;14.18;8.20;;;6.10;99.90;;;;;;5012568;28;20385;-54
2022/04/05 04:20:42;;;;;;;13.55;8.23;;;6.10;99.90;;;;;;5012602;28;20500;-52
2022/04/05 04:23:08;;;;;;;13.40;7.83;;;6.10;99.90;;;;;;5012657;28;20417;-54
2022/04/05 04:25:34;;;;;;;14.03;7.50;;;6.10;99.90;;;;;;5031137;28;20423;-54
2022/04/05 04:28:00;;;;;;;15.25;8.02;;;6.00;99.90;;;;;;5013254;28;20885;-54
2022/04/05 04:30:26;;;;;;;14.25;8.38;;;6.10;99.90;;;;;;5011700;28;20393;-54
2022/04/05 04:32:53;;;;;;;12.30;7.73;;;6.00;99.90;;;;;;4999968;28;20398;-53
2022/04/05 04:35:20;;;;;;;12.40;7.30;;;6.00;99.90;;;;;;4993514;28;20739;-54
2022/04/05 04:37:46;;;;;;;13.15;7.40;;;5.90;99.90;;;;;;5020563;28;20881;-54
2022/04/05 04:40:12;;;;;;;14.75;8.10;;;5.90;99.90;;;;;;5032332;28;20415;-54
2022/04/05 04:42:38;;;;;;;16.08;7.55;;;6.00;99.90;;;;;;5001835;28;20401;-52
2022/04/05 04:45:04;;;;;;;14.70;7.85;;;6.10;99.90;;;;;;5011867;28;20968;-54
2022/04/05 04:47:29;;;;;;;13.10;7.90;;;6.20;99.90;;;;;;5013080;28;20407;-54
2022/04/05 04:49:55;;;;;;;15.70;8.03;;;6.10;99.90;;;;;;5011732;28;21217;-54
2022/04/05 04:52:21;;;;;;;13.85;8.00;;;6.20;99.90;;;;;;5012505;28;20400;-54
2022/04/05 04:54:47;;;;;;;15.73;8.90;;;6.00;99.90;;;;;;5013092;28;20893;-54
2022/04/05 04:57:12;;;;;;;15.53;9.17;;;6.00;99.90;;;;;;5006042;28;20404;-56
2022/04/05 04:59:38;;;;;;;14.60;8.20;;;5.90;99.90;;;;;;5011873;28;20400;-52
2022/04/05 05:02:04;;;;;;;15.07;8.57;;;5.80;99.90;;;;;;5011012;28;20404;-55
2022/04/05 05:04:30;;;;;;;17.40;8.32;;;5.80;99.90;;;;;;5012033;28;20518;-55
2022/04/05 05:06:56;;;;;;;13.10;7.60;;;6.00;99.90;;;;;;5012244;28;20393;-54
2022/04/05 05:09:22;;;;;;;14.25;8.45;;;5.90;99.90;;;;;;5011537;28;20735;-55
2022/04/05 05:11:47;;;;;;;14.60;8.50;;;6.00;99.90;;;;;;5012894;28;20488;-53
2022/04/05 05:14:13;;;;;;;15.13;8.40;;;6.20;99.90;;;;;;5021602;28;20747;-54
2022/04/05 05:16:38;;;;;;;13.48;8.18;;;6.20;99.90;;;;;;5010881;28;20417;-50
2022/04/05 05:19:05;;;;;;;14.67;8.70;;;6.10;99.90;;;;;;5005986;28;20386;-53
2022/04/05 05:21:31;;;;;;;17.00;8.77;;;6.10;99.90;;;;;;4997263;28;20418;-52
2022/04/05 05:23:57;;;;;;;14.20;8.20;;;6.10;99.90;;;;;;5012927;28;20412;-52
2022/04/05 05:26:22;;;;;;;18.20;9.40;;;6.10;99.90;;;;;;5012564;28;20419;-52
2022/04/05 05:28:48;;;;;;;13.70;8.02;;;6.20;99.90;;;;;;5010861;28;20907;-52
2022/04/05 05:31:14;;;;;;;15.27;8.70;;;6.30;99.90;;;;;;5011572;28;20848;-51
2022/04/05 05:33:40;;;;;;;13.95;8.32;;;6.30;99.90;;;;;;5006098;28;20406;-51
2022/04/05 05:36:06;;;;;;;14.63;7.80;;;6.30;99.90;;;;;;4995475;28;20878;-53
2022/04/05 05:38:33;;;;;;;13.88;8.07;;;6.30;99.90;;;;;;5030929;28;20385;-53
2022/04/05 05:40:58;;;;;;;15.63;8.88;;;6.40;99.90;;;;;;5029388;28;20390;-53
2022/04/05 05:43:24;;;;;;;14.87;8.50;;;6.30;99.90;;;;;;5030842;28;20379;-52
2022/04/05 05:45:50;;;;;;;15.00;8.77;;;6.20;99.90;;;;;;5019286;28;20448;-52
2022/04/05 05:48:16;;;;;;;12.77;8.27;;;6.20;99.90;;;;;;5010372;28;20404;-53
2022/04/05 05:50:42;;;;;;;14.97;8.80;;;6.30;99.90;;;;;;5010429;28;20401;-50
2022/04/05 05:53:07;;;;;;;15.25;8.57;;;6.30;99.90;;;;;;5010970;28;20401;-53
2022/04/05 05:55:35;;;;;;;14.93;9.13;;;6.30;99.90;;;;;;5018308;28;20884;-53
2022/04/05 05:58:03;;;;;;;17.20;8.95;;;6.40;99.90;;;;;;5026014;28;20391;-52
2022/04/05 06:00:29;;;;;;;18.17;8.70;;;6.30;99.90;;;;;;5006176;28;20405;-52
2022/04/05 06:03:01;;;;;;;14.50;8.50;;;6.20;99.90;;;;;;5008314;28;20448;-52
2022/04/05 06:05:27;;;;;;;16.77;9.50;;;6.20;99.90;;;;;;4982530;28;20420;-52
2022/04/05 06:07:54;;;;;;;14.87;9.33;;;6.20;99.90;;;;;;4993536;28;20409;-52
2022/04/05 06:10:21;;;;;;;17.90;9.88;;;6.30;99.90;;;;;;5006410;28;20416;-52
2022/04/05 06:12:51;;;;;;;14.77;9.05;;;6.20;99.90;;;;;;5008131;28;20968;-52
2022/04/05 06:15:18;;;;;;;15.37;8.90;;;6.20;99.90;;;;;;5006095;28;21683;-55
2022/04/05 06:17:47;;;;;;;17.88;9.50;;;6.00;99.90;;;;;;5006332;28;20395;-52
2022/04/05 06:20:16;;;;;;;15.52;9.00;;;6.00;99.90;;;;;;4991494;28;20405;-54
2022/04/05 06:22:47;;;;;;;15.23;8.95;;;6.10;99.90;;;;;;5008670;28;20491;-51
2022/04/05 06:25:15;;;;;;;17.73;8.48;;;6.30;99.90;;;;;;5009141;28;20413;-53
2022/04/05 06:27:41;;;;;;;15.20;8.80;;;6.20;99.90;;;;;;5008609;28;20858;-51
2022/04/05 06:30:08;;;;;;;16.13;8.27;;;6.30;99.90;;;;;;4994793;28;20518;-53
2022/04/05 06:32:34;;;;;;;18.87;9.10;;;6.30;99.90;;;;;;5010391;28;20446;-53
2022/04/05 06:35:01;;;;;;;17.25;8.50;;;6.40;99.90;;;;;;5007359;28;20380;-54
2022/04/05 06:37:27;;;;;;;13.50;8.32;;;6.40;99.90;;;;;;5010313;28;20531;-54
2022/04/05 06:39:53;;;;;;;15.75;8.70;;;6.40;99.90;;;;;;5008050;28;20503;-53
2022/04/05 06:42:18;;;;;;;12.57;7.83;;;6.50;99.90;;;;;;5007474;28;20450;-55
2022/04/05 06:44:44;;;;;;;18.52;8.20;;;6.50;99.90;;;;;;5007003;28;20546;-54
2022/04/05 06:47:11;;;;;;;15.70;8.70;;;6.60;99.90;;;;;;4993836;28;20940;-53
2022/04/05 06:49:38;;;;;;;14.48;7.90;;;6.50;99.90;;;;;;5004664;28;20435;-54
2022/04/05 06:52:04;;;;;;;12.77;8.00;;;6.50;99.90;;;;;;5006824;28;20405;-53
2022/04/05 06:54:30;;;;;;;14.75;8.68;;;6.40;99.90;;;;;;5007913;28;20397;-53
2022/04/05 06:56:55;;;;;;;15.00;8.05;;;6.40;99.90;;;;;;5006204;28;20396;-53
2022/04/05 06:59:21;;;;;;;12.73;7.73;;;6.50;99.90;;;;;;5008153;28;20397;-54
2022/04/05 07:01:47;;;;;;;13.10;8.10;;;6.50;99.90;;;;;;5006844;28;20475;-53
2022/04/05 07:04:12;;;;;;;15.00;7.68;;;6.50;99.90;;;;;;5006763;28;20492;-54
2022/04/05 07:06:38;;;;;;;16.10;8.37;;;6.50;99.90;;;;;;5008033;28;20444;-52
2022/04/05 07:09:05;;;;;;;14.18;7.93;;;6.60;99.90;;;;;;5007804;28;20403;-54
2022/04/05 07:11:31;;;;;;;14.68;8.50;;;6.70;99.90;;;;;;5008066;28;20871;-54
2022/04/05 07:13:57;;;;;;;13.85;7.93;;;6.70;99.90;;;;;;5007379;28;20479;-53
2022/04/05 07:16:23;;;;;;;12.40;7.30;;;6.50;99.90;;;;;;5008845;28;20787;-52
2022/04/05 07:18:49;;;;;;;12.13;7.45;;;6.50;99.90;;;;;;5009354;28;20395;-53
2022/04/05 07:21:15;;;;;;;13.65;7.88;;;6.60;99.90;;;;;;5009985;28;20927;-52
2022/04/05 07:23:44;;;;;;;13.50;7.47;;;6.70;99.90;;;;;;5016966;28;20508;-51
2022/04/05 07:26:11;;;;;;;14.68;8.07;;;6.70;99.90;;;;;;5016968;28;20423;-53
2022/04/05 07:28:37;;;;;;;13.57;7.60;;;6.80;99.90;;;;;;5017655;28;20464;-52
2022/04/05 07:31:03;;;;;;;12.87;7.47;;;7.00;99.90;;;;;;5011213;28;20428;-53
2022/04/05 07:33:29;;;;;;;14.70;8.20;;;7.20;99.90;;;;;;5013891;28;20384;-53
2022/04/05 07:35:55;;;;;;;14.10;8.00;;;7.40;99.90;;;;;;5002221;28;21706;-53
2022/04/05 07:38:20;;;;;;;13.40;7.80;;;7.60;99.90;;;;;;5013789;28;20472;-53
2022/04/05 07:40:49;;;;;;;11.45;7.25;;;7.50;99.90;;;;;;5012096;28;20759;-53
2022/04/05 07:43:20;;;;;;;14.68;7.95;;;7.30;99.90;;;;;;5010493;28;20530;-53
2022/04/05 07:45:48;;;;;;;13.70;7.85;;;7.20;99.90;;;;;;5010263;28;20455;-53
2022/04/05 07:48:18;;;;;;;12.82;7.30;;;7.20;99.90;;;;;;5011311;28;20431;-51
2022/04/05 07:50:45;;;;;;;15.98;8.40;;;7.10;99.90;;;;;;5010751;28;20477;-52
2022/04/05 07:53:11;;;;;;;11.68;6.72;;;7.10;99.90;;;;;;5011651;28;20484;-53
2022/04/05 07:55:36;;;;;;;13.73;7.72;;;7.20;99.90;;;;;;5011514;28;20393;-53
2022/04/05 07:58:02;;;;;;;12.73;7.10;;;7.20;99.90;;;;;;4993600;28;20408;-53
2022/04/05 08:00:28;;;;;;;15.47;7.40;;;7.20;99.90;;;;;;5010964;28;20443;-54
2022/04/05 08:02:54;;;;;;;11.73;7.18;;;7.40;99.90;;;;;;5013019;28;20394;-53
2022/04/05 08:05:19;;;;;;;13.60;7.70;;;7.60;99.90;;;;;;5009536;28;20412;-53
2022/04/05 08:07:46;;;;;;;11.97;6.83;;;7.70;99.90;;;;;;5010606;28;20472;-53
2022/04/05 08:10:13;;;;;;;14.18;7.30;;;7.60;99.90;;;;;;5011391;28;20873;-53
2022/04/05 08:12:47;;;;;;;13.73;7.07;;;7.70;99.90;;;;;;5011302;28;20471;-54
2022/04/05 08:15:18;;;;;;;14.00;7.60;;;7.80;99.90;;;;;;5012316;28;20447;-54
2022/04/05 08:17:44;;;;;;;11.88;7.18;;;8.00;99.90;;;;;;4992784;28;20511;-52
2022/04/05 08:20:11;;;;;;;13.50;7.20;;;8.10;99.90;;;;;;5012164;28;20891;-54
2022/04/05 08:22:38;;;;;;;12.10;7.25;;;8.00;99.90;;;;;;5010500;28;20428;-54
2022/04/05 08:25:04;;;;;;;12.33;6.73;;;8.00;99.90;;;;;;5011122;28;20424;-54
2022/04/05 08:27:30;;;;;;;13.15;7.45;;;8.10;99.90;;;;;;5011276;28;20481;-54
2022/04/05 08:29:56;;;;;;;12.75;7.10;;;8.10;99.90;;;;;;5012589;28;20436;-54
2022/04/05 08:32:21;;;;;;;12.10;6.90;;;8.30;99.90;;;;;;5007257;28;20401;-53
2022/04/05 08:34:47;;;;;;;12.10;7.30;;;8.30;99.90;;;;;;5011802;28;20870;-54
2022/04/05 08:37:13;;;;;;;11.33;7.10;;;8.30;99.90;;;;;;5015765;28;20400;-54
2022/04/05 08:39:39;;;;;;;16.48;10.00;;;8.40;99.90;;;;;;5012578;28;20455;-54
2022/04/05 08:42:06;;;;;;;16.67;8.90;;;8.50;99.90;;;;;;5013206;28;20416;-54
2022/04/05 08:44:32;;;;;;;23.48;12.13;;;8.50;99.90;;;;;;4994305;28;20777;-54
2022/04/05 08:47:03;;;;;;;29.33;21.10;;;8.60;99.90;;;;;;5013117;28;20887;-53
2022/04/05 08:49:30;;;;;;;35.70;24.50;;;8.80;99.90;;;;;;5013145;28;20712;-54
2022/04/05 08:51:56;;;;;;;21.30;13.83;;;8.90;99.90;;;;;;5012821;28;20423;-54
2022/04/05 08:54:22;;;;;;;13.32;6.70;;;8.80;99.90;;;;;;5015074;28;20480;-54
2022/04/05 08:56:48;;;;;;;15.32;7.57;;;8.90;99.90;;;;;;5012593;28;20875;-55
2022/04/05 08:59:17;;;;;;;12.97;7.60;;;8.80;99.90;;;;;;5012670;28;20385;-54
2022/04/05 09:01:43;;;;;;;10.85;6.93;;;8.80;99.90;;;;;;4981151;28;20443;-52
2022/04/05 09:04:12;;;;;;;12.40;7.20;;;8.70;99.90;;;;;;5015736;28;20473;-54
2022/04/05 09:06:37;;;;;;;13.00;6.72;;;8.80;99.90;;;;;;4995784;28;20509;-54
2022/04/05 09:09:19;;;;;;;12.07;6.80;;;8.80;99.90;;;;;;5012904;28;20707;-54
2022/04/05 09:11:49;;;;;;;13.20;7.20;;;8.90;99.90;;;;;;5015432;28;20400;-52
2022/04/05 09:14:31;;;;;;;15.77;9.13;;;8.90;99.90;;;;;;5017478;28;20397;-54
2022/04/05 09:17:23;;;;;;;13.45;7.30;;;9.00;99.90;;;;;;5011414;28;20395;-54
2022/04/05 09:19:49;;;;;;;12.23;6.90;;;9.10;99.90;;;;;;5009031;28;20490;-54
2022/04/05 09:22:30;;;;;;;18.73;11.07;;;9.10;99.90;;;;;;5013912;28;20404;-55
2022/04/05 09:25:06;;;;;;;27.23;20.67;;;9.20;99.90;;;;;;5019349;28;20411;-54
2022/04/05 09:27:52;;;;;;;26.90;17.15;;;9.20;99.90;;;;;;5031313;28;20469;-55
2022/04/05 09:30:21;;;;;;;11.60;6.90;;;9.10;99.90;;;;;;5015513;28;20397;-54
2022/04/05 09:32:48;;;;;;;12.80;6.87;;;9.00;99.90;;;;;;5010573;28;20404;-53
2022/04/05 09:35:19;;;;;;;15.48;11.20;;;9.00;99.90;;;;;;5012503;28;20409;-54
2022/04/05 09:37:47;;;;;;;12.65;7.68;;;9.10;99.90;;;;;;5010369;28;20381;-53
2022/04/05 09:40:34;;;;;;;14.18;7.30;;;9.20;99.90;;;;;;5029220;28;20437;-55
2022/04/05 09:43:22;;;;;;;12.00;7.18;;;9.30;99.90;;;;;;5028859;28;20379;-54
2022/04/05 09:45:59;;;;;;;15.10;8.88;;;9.40;99.90;;;;;;5010009;28;20435;-54
2022/04/05 09:48:26;;;;;;;13.75;7.68;;;9.50;99.90;;;;;;4996572;28;20404;-55
2022/04/05 09:51:14;;;;;;;11.55;6.72;;;9.60;99.90;;;;;;5014058;28;20445;-54
2022/04/05 09:53:51;;;;;;;13.43;7.70;;;9.60;99.90;;;;;;5005353;28;20408;-53
2022/04/05 09:56:40;;;;;;;13.27;8.00;;;9.70;99.90;;;;;;5010551;28;20391;-54
2022/04/05 09:59:14;;;;;;;13.03;7.60;;;9.60;99.90;;;;;;5008520;28;21211;-55
2022/04/05 10:01:40;;;;;;;15.60;8.98;;;9.60;99.90;;;;;;5013384;28;20413;-54
2022/04/05 10:04:17;;;;;;;24.95;15.20;;;9.60;99.90;;;;;;5010078;28;20459;-53
2022/04/05 10:06:48;;;;;;;10.23;6.45;;;9.70;99.90;;;;;;5009626;28;20420;-53
2022/04/05 10:09:17;;;;;;;10.50;6.80;;;9.70;99.90;;;;;;5009270;28;20389;-52
2022/04/05 10:11:44;;;;;;;13.18;6.90;;;9.70;99.90;;;;;;5009596;28;20396;-50
2022/04/05 10:14:13;;;;;;;11.50;6.32;;;8.60;99.90;;;;;;5020977;28;20849;-50
2022/04/05 10:16:39;;;;;;;9.95;5.90;;;9.70;99.90;;;;;;5006946;28;20896;-51
2022/04/05 10:19:07;;;;;;;11.77;7.70;;;9.70;99.90;;;;;;5009627;28;20399;-51
2022/04/05 10:21:37;;;;;;;16.40;8.60;;;9.60;99.90;;;;;;5010591;28;20470;-51
2022/04/05 10:24:07;;;;;;;17.40;10.32;;;9.60;99.90;;;;;;5009032;28;21045;-50
2022/04/05 10:26:38;;;;;;;10.90;6.13;;;9.60;99.90;;;;;;5010180;28;20439;-53
2022/04/05 10:29:09;;;;;;;11.00;6.35;;;9.70;99.90;;;;;;5009574;28;20385;-52
2022/04/05 10:32:12;;;;;;;11.05;5.63;;;9.80;99.90;;;;;;5010224;28;20468;-52
2022/04/05 10:34:45;;;;;;;9.82;4.82;;;9.80;99.90;;;;;;5010186;28;20858;-52
2022/04/05 10:37:17;;;;;;;8.80;4.97;;;9.80;99.90;;;;;;5010431;28;20389;-52
2022/04/05 10:40:05;;;;;;;9.93;5.45;;;9.90;99.90;;;;;;5009998;28;20496;-52
2022/04/05 10:42:51;;;;;;;9.95;5.40;;;10.00;99.90;;;;;;4992707;28;20419;-52
2022/04/05 10:45:28;;;;;;;9.70;5.20;;;9.80;99.90;;;;;;5006882;28;20444;-52
2022/04/05 10:47:58;;;;;;;8.93;4.97;;;9.70;99.90;;;;;;5010020;28;20445;-52
2022/04/05 10:50:24;;;;;;;10.87;4.87;;;9.70;99.90;;;;;;5011338;28;20474;-52
2022/04/05 10:53:17;;;;;;;9.80;5.20;;;9.70;99.90;;;;;;5011207;28;20388;-52
2022/04/05 10:56:06;;;;;;;9.52;5.40;;;9.70;99.90;;;;;;5013608;28;20396;-52
2022/04/05 10:58:37;;;;;;;9.88;4.60;;;9.70;99.90;;;;;;5012252;28;20392;-52
2022/04/05 11:01:24;;;;;;;9.10;5.00;;;9.70;99.90;;;;;;5012680;28;20393;-52
2022/04/05 11:04:16;;;;;;;7.82;4.30;;;9.70;99.90;;;;;;5011350;28;20377;-52
2022/04/05 11:07:02;;;;;;;7.90;4.30;;;9.60;99.90;;;;;;5008316;28;20420;-53
2022/04/05 11:09:31;;;;;;;8.60;4.70;;;9.50;99.90;;;;;;5012466;28;20405;-52
2022/04/05 11:11:57;;;;;;;8.38;4.45;;;9.60;99.90;;;;;;5008750;28;20736;-52
2022/04/05 11:14:45;;;;;;;8.60;4.40;;;9.60;99.90;;;;;;5012128;28;20464;-52
2022/04/05 11:17:14;;;;;;;6.70;4.00;;;9.60;99.90;;;;;;5007838;28;20891;-52
2022/04/05 11:19:43;;;;;;;10.05;4.72;;;9.70;99.90;;;;;;5010643;28;20416;-52
2022/04/05 11:22:20;;;;;;;8.50;4.18;;;9.90;99.90;;;;;;5010928;28;21064;-52
2022/04/05 11:24:56;;;;;;;8.52;4.30;;;9.80;99.90;;;;;;4991764;28;20432;-52
2022/04/05 11:27:38;;;;;;;8.13;3.90;;;9.70;99.90;;;;;;5009121;28;20480;-52
2022/04/05 11:30:22;;;;;;;11.15;4.20;;;9.70;99.90;;;;;;5008349;28;20477;-51
2022/04/05 11:33:09;;;;;;;8.35;4.70;;;9.70;99.90;;;;;;5006056;28;20428;-52
2022/04/05 11:35:36;;;;;;;8.23;4.20;;;9.80;99.90;;;;;;5007045;28;20429;-52
2022/04/05 11:38:02;;;;;;;9.45;4.88;;;9.90;99.90;;;;;;5008862;28;20400;-52
2022/04/05 11:40:30;;;;;;;9.17;4.80;;;10.00;99.90;;;;;;5010971;28;20396;-52
2022/04/05 11:43:03;;;;;;;7.82;4.50;;;10.10;99.90;;;;;;5007492;28;20389;-52
2022/04/05 11:45:29;;;;;;;7.78;4.07;;;10.20;99.90;;;;;;5010737;28;20412;-52
2022/04/05 11:47:56;;;;;;;9.20;4.82;;;10.40;99.90;;;;;;4991376;28;20882;-52
2022/04/05 11:50:23;;;;;;;9.18;4.75;;;10.50;99.90;;;;;;5009535;28;20393;-52
2022/04/05 11:52:49;;;;;;;8.18;4.95;;;10.60;99.90;;;;;;5008853;28;20401;-52
2022/04/05 11:58:11;;;;;;;7.63;4.20;;;10.90;99.90;;;;;;4988821;28;20377;-50
2022/04/05 12:00:52;;;;;;;7.00;4.00;;;11.00;99.90;;;;;;4988743;28;20430;-49
2022/04/05 12:03:18;;;;;;;8.15;4.20;;;11.00;99.90;;;;;;4988451;28;20398;-51
2022/04/05 12:05:46;;;;;;;8.10;4.20;;;10.80;99.90;;;;;;5008005;28;20424;-52
2022/04/05 12:08:16;;;;;;;9.38;4.53;;;10.80;99.90;;;;;;5011526;28;20438;-52
2022/04/05 12:10:43;;;;;;;8.02;4.32;;;10.70;99.90;;;;;;5012489;28;20447;-52
2022/04/05 12:13:09;;;;;;;9.07;4.50;;;10.60;99.90;;;;;;5016325;28;20512;-52
2022/04/05 12:15:36;;;;;;;10.48;5.18;;;10.80;99.90;;;;;;5021084;28;20890;-52
2022/04/05 12:18:22;;;;;;;8.40;3.90;;;10.80;99.90;;;;;;5011957;28;20805;-52
2022/04/05 12:20:58;;;;;;;9.50;4.55;;;10.80;99.90;;;;;;4995235;28;20447;-52
2022/04/05 12:23:29;;;;;;;9.43;4.57;;;10.80;99.90;;;;;;5012557;28;20451;-52
2022/04/05 12:26:23;;;;;;;7.47;3.90;;;11.10;99.90;;;;;;5027898;28;20429;-49
2022/04/05 12:28:55;;;;;;;8.05;4.18;;;11.20;99.90;;;;;;5019781;28;20427;-51
2022/04/05 12:31:30;;;;;;;9.90;4.60;;;11.20;99.90;;;;;;5015716;28;20996;-50
2022/04/05 12:34:05;;;;;;;9.90;4.20;;;11.30;99.90;;;;;;5011468;28;20392;-52
2022/04/05 12:36:39;;;;;;;9.90;4.40;;;11.40;99.90;;;;;;5012616;28;20400;-52
2022/04/05 12:39:07;;;;;;;8.98;4.40;;;11.40;99.90;;;;;;5011486;28;20973;-49
2022/04/05 12:41:40;;;;;;;8.82;4.90;;;11.50;99.90;;;;;;5010972;28;20407;-49
2022/04/05 12:44:12;;;;;;;10.70;5.20;;;11.50;99.90;;;;;;5007421;28;20387;-49
2022/04/05 12:46:42;;;;;;;9.60;5.35;;;11.70;99.90;;;;;;5017989;28;20545;-50
2022/04/05 12:49:15;;;;;;;10.30;5.13;;;11.80;99.90;;;;;;5009825;28;20408;-50
2022/04/05 12:51:41;;;;;;;8.50;4.40;;;11.90;99.90;;;;;;5011791;28;20413;-50
2022/04/05 12:54:23;;;;;;;8.10;4.70;;;11.90;99.90;;;;;;4994164;28;20988;-50
2022/04/05 12:56:49;;;;;;;10.18;5.40;;;12.00;99.90;;;;;;5009093;28;20441;-50
2022/04/05 12:59:27;;;;;;;8.70;5.18;;;12.10;99.90;;;;;;5013050;28;20396;-49
2022/04/05 13:01:54;;;;;;;11.80;6.10;;;12.10;99.90;;;;;;5010562;28;20482;-50